Eastmain, Canada
Current Conditions -  °F | °C
As of 2:00 PM on Friday 31 Oct 2014 (Local Time) from CYGL Reporting Station
Broken Clouds Broken Clouds  
Wind Chill: 23°   Ceiling: 2500
Heat Index: 30°   Visibility: 15mi
Dew Point: 19°   Wind: 8mph
Humidity: 64%   Direction: 300°WNW
Pressure: 30.13"   Gusts: NA
Location:  52.23°N, 78.52°W
Report Text: CYGL 311800Z 30007KT 15SM BKN025 BKN240 M01/M07 A3013 RMK SC6CI1 CI TR SLP218
Loading
Personal Weather Stations






























Interactive Weather Map
Tropical Storm Tracking
New forecast layout! Learn more

10-Day Weather Forecast

Advertisements
Track Severe Weather on mobile